< < Back
Terminal Aerodrome Forecast


Current Version              Previous Versions:   1  2  3  4  5  6  7  8  9  

Terminal Aerodrome Forecast

994
FTUS42 KJAX 302347
TAFJAX
TAF
KJAX 302347Z 3100/3124 11006KT 5SM -SHRA BR VCTS SCT025CB BKN100
      TEMPO 3100/3102 BKN025CB
     FM310400 10004KT P6SM VCSH SCT015 SCT100 BKN250
     FM311600 12006KT P6SM VCSH SCT020 BKN040=

Latest METAR

766
SAUS80 KWBC 310600
MTRJAX
METAR KJAX 310556Z 00000KT 10SM FEW160 BKN250 23/23 A3000 RMK AO2 SLP159
60010 T02330228 10250 20228 58002


USA.gov is the U.S. government's official web portal to all federal, state and local government web resources and services.